KMMU/MMU METAR and TAF weather

Enter ICAO airport designator
Station Type Date Time Source
KMMU METAR 2020/07/03 10:35 UTC NOAA

KMMU 031035Z AUTO 00000KT 10SM CLR 22/19 A2983 RMK AO2


Station Type Date Time Source
KMMU Decoded METAR 2020/07/03 10:35 UTC NOAA

Morristown Municipal, NJ, United States (KMMU) 40-48N 074-25W
Jul 03, 2020 - 06:35 AM EDT / 2020.07.03 1035 UTC
Wind: Calm:0
Visibility: 10 mile(s):0
Sky conditions: clear
Temperature: 71 F (22 C)
Dew Point: 66 F (19 C)
Relative Humidity: 83%
Pressure (altimeter): 29.83 in. Hg (1010 hPa)
ob: KMMU 031035Z AUTO 00000KT 10SM CLR 22/19 A2983 RMK AO2
cycle: 10

Station Type Date Time Source
KMMU TAF UTC NOAA

Error!

Example: see airport list